createdAt,value
2018-09-24T00:01:27.828Z,3.23
2018-09-24T00:06:25.211Z,2.50
2018-09-24T00:11:28.025Z,3.03
2018-09-24T00:16:25.463Z,2.70
2018-09-24T00:21:22.831Z,3.20
2018-09-24T00:26:20.209Z,2.93
2018-09-24T00:31:17.571Z,2.87
2018-09-24T00:36:14.932Z,3.00
2018-09-24T00:41:17.178Z,3.67
2018-09-24T00:46:14.895Z,2.60
2018-09-24T00:51:12.259Z,3.33
2018-09-24T00:56:09.651Z,3.20
2018-09-24T01:01:07.031Z,3.00
2018-09-24T01:06:04.440Z,2.60
2018-09-24T01:11:05.815Z,2.50
2018-09-24T01:16:03.286Z,2.50
2018-09-24T01:21:01.286Z,2.37
2018-09-24T01:25:58.684Z,2.97
2018-09-24T01:30:56.103Z,2.20
2018-09-24T01:35:53.513Z,2.77
2018-09-24T01:40:51.446Z,3.20
2018-09-24T01:45:48.872Z,4.37
2018-09-24T01:50:46.329Z,2.80
2018-09-24T01:55:48.598Z,2.57
2018-09-24T02:00:45.971Z,2.50
2018-09-24T02:05:43.340Z,2.63
2018-09-24T02:10:40.722Z,2.30
2018-09-24T02:15:38.099Z,2.33
2018-09-24T02:20:44.072Z,1.90
2018-09-24T02:25:41.500Z,2.00
2018-09-24T02:30:38.919Z,2.73
2018-09-24T02:35:36.404Z,2.10
2018-09-24T02:40:33.851Z,2.77
2018-09-24T02:45:31.268Z,2.70
2018-09-24T02:50:35.478Z,2.23
2018-09-24T02:55:32.871Z,1.83
2018-09-24T03:00:30.288Z,2.40
2018-09-24T03:05:27.714Z,2.07
2018-09-24T03:10:25.129Z,1.97
2018-09-24T03:15:22.546Z,1.70
2018-09-24T03:20:21.252Z,2.40
2018-09-24T03:25:19.248Z,1.90
2018-09-24T03:30:16.715Z,1.60
2018-09-24T03:35:14.137Z,2.77
2018-09-24T03:40:11.588Z,1.80
2018-09-24T03:45:09.008Z,2.60
2018-09-24T03:50:06.439Z,2.23
2018-09-24T03:55:03.896Z,2.53
2018-09-24T04:00:01.383Z,2.70
2018-09-24T04:05:04.351Z,2.70
2018-09-24T04:10:07.421Z,1.93
2018-09-24T04:15:10.388Z,2.13
2018-09-24T04:20:13.415Z,1.70
2018-09-24T04:25:16.431Z,2.33
2018-09-24T04:30:19.536Z,2.00
2018-09-24T04:35:22.524Z,1.90
2018-09-24T04:40:25.736Z,2.43
2018-09-24T04:45:28.752Z,2.93
2018-09-24T04:50:31.737Z,2.20
2018-09-24T04:55:34.635Z,2.37
2018-09-24T05:00:37.765Z,2.30
2018-09-24T05:05:40.676Z,2.33
2018-09-24T05:10:43.703Z,2.77
2018-09-24T05:15:46.628Z,1.87
2018-09-24T05:20:49.699Z,2.90
2018-09-24T05:25:53.600Z,2.97
2018-09-24T05:30:56.710Z,2.80
2018-09-24T05:35:59.766Z,3.00
2018-09-24T05:41:03.705Z,3.47
2018-09-24T05:46:06.876Z,3.70
2018-09-24T05:51:10.176Z,3.30
2018-09-24T05:56:13.123Z,2.33
2018-09-24T06:01:16.214Z,3.10
2018-09-24T06:06:19.209Z,3.70
2018-09-24T06:11:27.487Z,2.83
2018-09-24T06:16:30.631Z,2.90
2018-09-24T06:21:33.676Z,2.90
2018-09-24T06:26:36.836Z,1.87
2018-09-24T06:31:39.947Z,3.00
2018-09-24T06:36:42.984Z,3.30
2018-09-24T06:41:55.588Z,2.50
2018-09-24T06:46:58.655Z,3.40
2018-09-24T06:52:01.633Z,3.27
2018-09-24T06:57:04.711Z,3.20
2018-09-24T07:02:07.828Z,2.90
2018-09-24T07:07:11.022Z,2.30
2018-09-24T07:12:14.787Z,2.50
2018-09-24T07:17:17.819Z,2.20
2018-09-24T07:22:20.903Z,2.70
2018-09-24T07:27:23.992Z,2.40
2018-09-24T07:32:27.020Z,2.30
2018-09-24T07:37:29.952Z,2.47
2018-09-24T07:42:33.088Z,1.57
2018-09-24T07:47:36.202Z,2.70
2018-09-24T07:52:39.364Z,2.77
2018-09-24T07:57:42.392Z,2.33
2018-09-24T08:02:47.805Z,1.37
2018-09-24T08:07:52.189Z,2.20
2018-09-24T08:12:55.369Z,2.13
2018-09-24T08:17:58.250Z,2.33
2018-09-24T08:23:01.356Z,1.60
2018-09-24T08:28:04.317Z,2.30
2018-09-24T08:33:07.444Z,1.17
2018-09-24T08:38:10.727Z,1.67
2018-09-24T08:43:13.839Z,1.93
2018-09-24T08:48:16.859Z,1.30
2018-09-24T08:53:20.555Z,1.33
2018-09-24T08:58:23.498Z,2.00
2018-09-24T09:03:26.611Z,1.30
2018-09-24T09:08:29.662Z,1.67
2018-09-24T09:13:39.508Z,1.30
2018-09-24T09:18:42.633Z,0.50
2018-09-24T09:23:46.336Z,0.83
2018-09-24T09:28:50.396Z,1.00
2018-09-24T09:33:53.554Z,1.37
2018-09-24T09:38:56.662Z,1.00
2018-09-24T09:44:00.671Z,1.00
2018-09-24T09:49:03.684Z,0.93
2018-09-24T09:54:06.689Z,2.90
2018-09-24T09:59:09.836Z,0.60
2018-09-24T10:04:13.951Z,0.70
2018-09-24T10:09:16.937Z,0.70
2018-09-24T10:14:20.068Z,0.90
2018-09-24T10:19:23.228Z,1.20
2018-09-24T10:24:26.580Z,0.47
2018-09-24T10:29:29.643Z,0.87
2018-09-24T10:34:32.731Z,1.30
2018-09-24T10:39:35.775Z,1.40
2018-09-24T10:44:38.795Z,0.80
2018-09-24T10:49:41.763Z,0.50
2018-09-24T10:54:45.311Z,1.10
2018-09-24T10:59:48.315Z,0.83
2018-09-24T11:04:51.373Z,0.73
2018-09-24T11:09:54.475Z,0.60
2018-09-24T11:14:57.684Z,0.73
2018-09-24T11:20:00.683Z,0.90
2018-09-24T11:25:03.799Z,1.13
2018-09-24T11:30:06.932Z,0.57
2018-09-24T11:35:10.172Z,0.60
2018-09-24T11:40:13.251Z,0.60
2018-09-24T11:45:16.372Z,0.73
2018-09-24T11:50:19.575Z,0.90
2018-09-24T11:55:22.723Z,0.60
2018-09-24T12:00:25.592Z,0.60
2018-09-24T12:05:28.623Z,0.50
2018-09-24T12:10:31.647Z,0.50
2018-09-24T12:15:34.636Z,0.87
2018-09-24T12:20:37.861Z,0.80
2018-09-24T12:25:40.840Z,0.80
2018-09-24T12:30:43.814Z,1.97
2018-09-24T12:35:46.915Z,0.80
2018-09-24T12:40:49.868Z,1.47
2018-09-24T12:45:52.899Z,1.43
2018-09-24T12:50:58.494Z,1.17
2018-09-24T12:56:01.612Z,0.90
2018-09-24T13:01:05.140Z,0.90
2018-09-24T13:07:11.621Z,0.80
2018-09-24T13:12:15.559Z,0.77
2018-09-24T13:17:18.523Z,0.50
2018-09-24T13:22:21.568Z,0.90
2018-09-24T13:27:24.742Z,0.93
2018-09-24T13:32:27.895Z,0.50
2018-09-24T13:37:30.940Z,0.80
2018-09-24T13:42:35.405Z,1.17
2018-09-24T13:47:38.436Z,0.60
2018-09-24T13:52:41.450Z,0.80
2018-09-24T13:57:44.487Z,1.03
2018-09-24T14:02:47.698Z,1.10
2018-09-24T14:07:50.838Z,0.83
2018-09-24T14:12:54.854Z,1.07
2018-09-24T14:17:58.170Z,0.87
2018-09-24T14:23:01.434Z,0.80
2018-09-24T14:28:14.062Z,0.67
2018-09-24T14:33:17.247Z,0.90
2018-09-24T14:38:20.519Z,0.60
2018-09-24T14:43:23.538Z,0.57
2018-09-24T14:48:26.878Z,0.90
2018-09-24T14:53:31.107Z,0.70
2018-09-24T14:58:35.718Z,0.87
2018-09-24T15:03:43.528Z,0.50
2018-09-24T15:08:48.513Z,0.80
2018-09-24T15:13:51.805Z,0.80
2018-09-24T15:18:56.130Z,0.67
2018-09-24T15:24:01.012Z,0.83
2018-09-24T15:29:06.656Z,1.00
2018-09-24T15:34:10.868Z,1.57
2018-09-24T15:39:15.427Z,1.97
2018-09-24T15:44:19.032Z,1.20
2018-09-24T15:49:22.263Z,1.10
2018-09-24T15:59:41.314Z,0.87
2018-09-24T16:04:44.236Z,1.63
2018-09-24T16:09:48.204Z,1.17
2018-09-24T16:14:52.498Z,0.97
2018-09-24T16:19:55.888Z,0.73
2018-09-24T16:25:00.048Z,1.43
2018-09-24T16:30:05.475Z,0.50
2018-09-24T16:35:08.472Z,1.10
2018-09-24T16:40:11.591Z,0.80
2018-09-24T16:45:14.899Z,0.87
2018-09-24T16:50:17.900Z,2.30
2018-09-24T16:55:21.791Z,1.47
2018-09-24T17:00:24.805Z,0.97
2018-09-24T17:05:27.851Z,1.00
2018-09-24T17:10:30.815Z,1.03
2018-09-24T17:15:34.024Z,1.20
2018-09-24T17:20:37.027Z,1.00
2018-09-24T17:25:40.100Z,0.70
2018-09-24T17:30:43.744Z,1.10
2018-09-24T17:35:46.880Z,0.90
2018-09-24T17:40:50.539Z,0.80
2018-09-24T17:45:54.575Z,1.13
2018-09-24T17:50:57.756Z,0.90
2018-09-24T17:56:03.136Z,1.03
2018-09-24T18:01:07.063Z,1.23
2018-09-24T18:06:10.913Z,1.47
2018-09-24T18:11:16.418Z,1.37
2018-09-24T18:16:20.339Z,1.33
2018-09-24T18:21:26.268Z,2.23
2018-09-24T18:26:31.096Z,1.67
2018-09-24T18:31:35.504Z,8.97
2018-09-24T18:36:39.531Z,6.00
2018-09-24T18:41:43.373Z,5.03
2018-09-24T18:46:47.867Z,4.90
2018-09-24T18:51:51.948Z,3.23
2018-09-24T18:56:56.976Z,2.40
2018-09-24T19:02:02.608Z,5.60
2018-09-24T19:07:08.145Z,6.60
2018-09-24T19:12:11.771Z,5.43
2018-09-24T19:17:16.054Z,6.20
2018-09-24T19:22:19.472Z,3.77
2018-09-24T19:27:24.036Z,3.47
2018-09-24T19:32:27.907Z,2.70
2018-09-24T19:37:32.050Z,4.50
2018-09-24T19:42:36.401Z,3.07
2018-09-24T19:47:40.518Z,3.63
2018-09-24T19:52:44.674Z,3.30
2018-09-24T19:57:49.027Z,2.60
2018-09-24T20:02:53.277Z,3.37
2018-09-24T20:07:58.565Z,2.90
2018-09-24T20:13:02.988Z,2.20
2018-09-24T20:18:07.453Z,2.67
2018-09-24T20:23:11.943Z,4.43
2018-09-24T20:28:16.574Z,8.63
2018-09-24T20:33:20.732Z,4.70
2018-09-24T20:38:25.141Z,19.53
2018-09-24T20:43:32.233Z,5.40
2018-09-24T20:48:37.550Z,4.90
2018-09-24T20:53:42.281Z,4.00
2018-09-24T20:58:46.706Z,4.43
2018-09-24T21:03:50.902Z,4.63
2018-09-24T21:08:55.284Z,4.80
2018-09-24T21:13:59.885Z,3.70
2018-09-24T21:19:04.749Z,3.13
2018-09-24T21:24:09.166Z,3.80
2018-09-24T21:29:14.045Z,4.30
2018-09-24T21:34:18.481Z,3.10
2018-09-24T21:39:22.795Z,3.37
2018-09-24T21:44:28.701Z,3.10
2018-09-24T21:49:33.198Z,2.43
2018-09-24T21:54:38.311Z,3.07
2018-09-24T21:59:43.125Z,2.50
2018-09-24T22:04:54.453Z,3.67
2018-09-24T22:10:00.017Z,3.37
2018-09-24T22:15:03.761Z,3.20
2018-09-24T22:20:07.619Z,2.57
2018-09-24T22:25:11.358Z,2.20
2018-09-24T22:30:15.046Z,2.20
2018-09-24T22:35:18.902Z,2.20
2018-09-24T22:40:22.624Z,2.77
2018-09-24T22:45:26.448Z,2.30
2018-09-24T22:50:30.208Z,1.70
2018-09-24T22:55:33.981Z,2.17
2018-09-24T23:00:37.621Z,2.60
2018-09-24T23:05:41.520Z,1.90
2018-09-24T23:10:45.277Z,2.00
2018-09-24T23:15:49.226Z,2.13
2018-09-24T23:20:53.002Z,2.70
2018-09-24T23:25:56.878Z,2.70
2018-09-24T23:31:00.859Z,3.17
2018-09-24T23:36:04.491Z,2.47
2018-09-24T23:41:08.341Z,2.80
2018-09-24T23:46:12.201Z,3.00
2018-09-24T23:51:16.148Z,3.10
2018-09-24T23:56:19.953Z,3.83
